createdAt,value
2017-08-22T00:05:02.134Z,79.43
2017-08-22T00:07:51.795Z,79.58
2017-08-22T00:10:49.531Z,79.05
2017-08-22T00:13:47.290Z,79.42
2017-08-22T00:16:45.068Z,79.45
2017-08-22T00:19:42.783Z,79.35
2017-08-22T00:22:40.325Z,79.81
2017-08-22T00:25:38.092Z,80.03
2017-08-22T00:44:44.930Z,80.43
2017-08-22T00:47:42.712Z,80.76
2017-08-22T00:50:08.486Z,80.93
2017-08-22T01:09:43.903Z,81.12
2017-08-22T01:28:54.345Z,81.87
2017-08-22T01:31:52.052Z,81.25
2017-08-22T01:34:17.823Z,81.80
2017-08-22T01:37:07.008Z,81.67
2017-08-22T01:40:04.835Z,81.36
2017-08-22T01:43:01.788Z,81.54
2017-08-22T01:45:59.496Z,82.40
2017-08-22T01:48:57.192Z,82.53
2017-08-22T01:51:54.840Z,82.36
2017-08-22T01:57:42.185Z,81.35
2017-08-22T02:00:31.620Z,81.12
2017-08-22T02:03:29.461Z,81.51
2017-08-22T02:06:27.455Z,81.97
2017-08-22T02:09:25.063Z,82.54
2017-08-22T02:12:22.856Z,82.49
2017-08-22T02:15:20.576Z,82.33
2017-08-22T02:21:07.186Z,83.92
2017-08-22T02:23:56.767Z,82.89
2017-08-22T02:26:54.511Z,82.61
2017-08-22T02:42:44.789Z,82.08
2017-08-22T02:45:34.383Z,82.63
2017-08-22T02:48:32.201Z,82.31
2017-08-22T03:04:23.135Z,82.89
2017-08-22T03:07:12.535Z,83.34
2017-08-22T03:10:10.417Z,82.64
2017-08-22T03:26:01.553Z,81.88
2017-08-22T03:28:51.587Z,81.99
2017-08-22T03:48:04.187Z,82.78
2017-08-22T03:50:53.828Z,83.19
2017-08-22T03:53:51.462Z,82.94
2017-08-22T03:56:49.350Z,82.81
2017-08-22T03:59:47.274Z,83.07
2017-08-22T04:02:44.927Z,83.19
2017-08-22T04:05:42.775Z,82.88
2017-08-22T04:11:30.395Z,82.97
2017-08-22T04:14:20.312Z,83.21
2017-08-22T04:17:17.973Z,82.43
2017-08-22T04:20:15.884Z,82.74
2017-08-22T04:23:13.877Z,82.87
2017-08-22T04:26:11.675Z,81.94
2017-08-22T04:29:09.346Z,82.94
2017-08-22T04:34:56.992Z,84.17
2017-08-22T04:54:32.391Z,84.93
2017-08-22T04:56:58.188Z,83.44
2017-08-22T04:59:47.808Z,83.41
2017-08-22T05:18:58.703Z,82.24
2017-08-22T05:21:48.367Z,82.41
2017-08-22T05:40:59.195Z,83.21
2017-08-22T05:43:48.743Z,78.58
2017-08-22T05:46:46.352Z,80.05
2017-08-22T06:05:51.059Z,74.53
2017-08-22T06:25:01.384Z,71.54
2017-08-22T06:27:50.984Z,72.05
2017-08-22T06:30:48.849Z,71.39
2017-08-22T06:33:46.579Z,71.11
2017-08-22T06:46:32.723Z,69.79
2017-08-22T07:06:06.435Z,62.66
2017-08-22T07:08:32.211Z,60.81
2017-08-22T07:11:21.607Z,58.21
2017-08-22T07:14:19.535Z,56.77
2017-08-22T07:17:17.035Z,56.10
2017-08-22T07:20:14.742Z,51.97
2017-08-22T07:23:12.406Z,52.09
2017-08-22T07:26:10.124Z,50.42
2017-08-22T07:29:07.683Z,46.04
2017-08-22T07:48:16.234Z,47.10
2017-08-22T07:54:03.442Z,46.79
2017-08-22T07:56:52.964Z,47.84
2017-08-22T07:59:49.744Z,46.90
2017-08-22T08:15:39.284Z,49.11
2017-08-22T08:18:28.923Z,48.39
2017-08-22T08:21:26.724Z,49.44
2017-08-22T08:24:24.442Z,50.17
2017-08-22T08:27:22.144Z,49.50
2017-08-22T08:37:11.702Z,48.46
2017-08-22T08:40:01.527Z,48.91
2017-08-22T08:42:59.131Z,46.31
2017-08-22T08:45:56.841Z,48.24
2017-08-22T08:48:54.628Z,47.01
2017-08-22T08:51:52.319Z,45.70
2017-08-22T08:54:50.185Z,45.36
2017-08-22T08:57:47.756Z,45.06
2017-08-22T09:00:13.555Z,46.30
2017-08-22T09:03:02.789Z,46.47
2017-08-22T09:06:00.627Z,45.02
2017-08-22T09:21:49.749Z,43.64
2017-08-22T09:24:39.376Z,43.25
2017-08-22T09:27:37.088Z,43.00
2017-08-22T09:30:34.727Z,40.67
2017-08-22T09:33:31.478Z,42.60
2017-08-22T09:43:20.938Z,41.57
2017-08-22T09:46:10.508Z,42.13
2017-08-22T10:05:21.718Z,40.07
2017-08-22T10:08:11.479Z,39.61
2017-08-22T10:11:09.153Z,38.26
2017-08-22T10:14:06.960Z,35.10
2017-08-22T10:17:04.533Z,36.36
2017-08-22T10:26:54.416Z,38.58
2017-08-22T10:29:43.926Z,37.90
2017-08-22T10:48:54.276Z,39.56
2017-08-22T11:08:28.275Z,39.52
2017-08-22T11:27:33.815Z,41.52
2017-08-22T11:30:31.406Z,39.80
2017-08-22T11:49:40.695Z,35.27
2017-08-22T12:08:50.355Z,39.84
2017-08-22T12:28:00.311Z,35.65
2017-08-22T12:30:58.052Z,36.50
2017-08-22T12:33:55.679Z,33.86
2017-08-22T12:36:53.559Z,33.55
2017-08-22T12:39:51.312Z,37.28
2017-08-22T12:42:17.123Z,34.97
2017-08-22T12:45:06.191Z,35.06
2017-08-22T12:48:03.942Z,36.58
2017-08-22T12:51:01.599Z,37.50
2017-08-22T13:03:47.855Z,36.70
2017-08-22T13:06:37.355Z,35.65
2017-08-22T13:09:35.173Z,34.37
2017-08-22T13:28:41.165Z,35.29
2017-08-22T13:31:38.713Z,33.00
2017-08-22T13:50:46.734Z,29.09
2017-08-22T13:53:44.600Z,30.63
2017-08-22T14:09:34.969Z,30.39
2017-08-22T14:12:24.739Z,31.17
2017-08-22T14:15:21.617Z,29.63
2017-08-22T14:18:19.027Z,29.23
2017-08-22T14:31:03.411Z,29.58
2017-08-22T14:50:36.894Z,27.29
2017-08-22T14:53:02.679Z,27.94
2017-08-22T15:12:48.239Z,35.00
2017-08-22T15:15:14.051Z,36.81
2017-08-22T15:34:47.661Z,29.60
2017-08-22T15:53:52.328Z,34.05
2017-08-22T15:56:49.332Z,37.37
2017-08-22T15:59:15.114Z,37.45
2017-08-22T16:02:04.267Z,37.97
2017-08-22T16:05:01.893Z,38.13
2017-08-22T16:24:10.615Z,34.74
2017-08-22T16:43:21.543Z,36.55
2017-08-22T16:46:11.333Z,36.10
2017-08-22T16:49:09.155Z,36.99
2017-08-22T17:04:58.999Z,40.00
2017-08-22T17:07:48.718Z,41.22
2017-08-22T17:10:46.537Z,42.78
2017-08-22T17:13:44.432Z,44.39
2017-08-22T17:16:42.136Z,44.04
2017-08-22T17:19:39.939Z,44.80
2017-08-22T17:22:37.731Z,44.23
2017-08-22T17:25:35.739Z,45.39
2017-08-22T17:28:01.538Z,46.35
2017-08-22T17:47:35.107Z,50.55
2017-08-22T18:06:56.697Z,52.65
2017-08-22T18:12:43.851Z,53.63
2017-08-22T18:15:33.552Z,53.61
2017-08-22T18:18:31.356Z,54.01
2017-08-22T18:34:20.819Z,56.93
2017-08-22T18:37:10.670Z,57.71
2017-08-22T18:40:08.183Z,58.84
2017-08-22T18:43:05.859Z,59.08
2017-08-22T18:55:49.148Z,62.41
2017-08-22T18:58:38.559Z,63.66
2017-08-22T19:18:03.193Z,64.02
2017-08-22T19:20:52.947Z,63.86
2017-08-22T19:40:03.612Z,66.52
2017-08-22T19:59:38.157Z,63.92
2017-08-22T20:18:44.107Z,67.79
2017-08-22T20:24:31.074Z,67.37
2017-08-22T20:27:20.737Z,66.95
2017-08-22T20:30:18.556Z,67.78
2017-08-22T20:33:16.267Z,69.36
2017-08-22T20:36:14.014Z,68.84
2017-08-22T20:46:03.378Z,70.44
2017-08-22T21:05:36.940Z,71.24
2017-08-22T21:08:02.699Z,71.21
2017-08-22T21:10:51.944Z,71.28
2017-08-22T21:13:49.772Z,72.22
2017-08-22T21:16:47.448Z,72.15
2017-08-22T21:19:44.936Z,72.40
2017-08-22T21:22:42.559Z,72.62
2017-08-22T21:31:50.295Z,72.23
2017-08-22T21:34:40.097Z,72.08
2017-08-22T21:53:51.021Z,74.54
2017-08-22T21:56:40.880Z,74.58
2017-08-22T21:59:39.476Z,74.77
2017-08-22T22:15:28.423Z,75.40
2017-08-22T22:18:17.338Z,75.39
2017-08-22T22:37:27.945Z,76.13
2017-08-22T22:40:17.835Z,76.79
2017-08-22T22:43:15.435Z,76.56
2017-08-22T22:46:12.924Z,76.34
2017-08-22T22:58:56.731Z,77.56
2017-08-22T23:01:46.188Z,77.72
2017-08-22T23:04:43.822Z,77.23
2017-08-22T23:07:41.479Z,77.47
2017-08-22T23:10:38.998Z,77.19
2017-08-22T23:13:36.523Z,77.86
2017-08-22T23:16:34.407Z,78.01
2017-08-22T23:19:32.155Z,78.17
2017-08-22T23:21:57.969Z,78.04
2017-08-22T23:24:47.149Z,78.08
2017-08-22T23:27:44.787Z,78.11
2017-08-22T23:43:34.343Z,78.83
2017-08-22T23:46:23.836Z,78.99
2017-08-22T23:49:21.575Z,78.86
